Atlantic - Newfoundland: Past 24 Hour Conditions

 

Blanc-Sablon Airport

04:00 AM AST 06 December 2016
Disclaimer

This table is a summary of hourly weather conditions for the past 24 hours.
Please note that these observations might not always be representative of weather conditions over their associated marine area.

Date / Time
(AST)
Wind(knots) Conditions Visibility(km) Pressure(kPa) Air tempC) Relative humidity(%) Dew pointC) Wind Chill
06 December 2016
4:00 WNW 5 Clear 24 100.6 -11 79 -14 -16
3:00 WNW 11 gust 16 Clear 24 100.6 -11 77 -14 -19
2:00 WNW 11 gust 17 Clear 24 100.6 -11 77 -14 -19
1:00 W 12 gust 18 Clear 24 100.6 -10 75 -14 -19
0:00 WNW 11 Clear 24 100.6 -9 74 -13 -17
05 December 2016
23:00 WNW 12 Clear 24 100.7 -9 73 -13 -17
22:00 WNW 11 Clear 24 100.7 -9 72 -13 -16
21:00 N 2 Clear 24 100.8 -9 70 -13 -10
20:00 NNW 7 Mainly Clear 24 100.8 -8 69 -13 -14
19:00 NW 8 Partly Cloudy 24 100.8 -8 70 -12 -14
18:00 NW 7 Mostly Cloudy 24 100.9 -7 70 -12 -12
17:00 WNW 10 Cloudy 24 100.9 -6 69 -11 -13
16:00 NW 10 gust 17 Mostly Cloudy 24 100.9 -6 66 -11 -12
15:00 NW 11 Mostly Cloudy 24 100.9 -5 64 -11 -12
14:00 NW 12 gust 19 Light Snow 24 100.9 -5 63 -11 -12
13:00 NW 11 Light Snow 24 100.9 -5 64 -11 -12
12:00 NW 13 Mostly Cloudy 24 100.9 -5 64 -11 -12
11:00 NW 11 Cloudy 24 101.0 -6 62 -12 -13
10:00 NNW 11 Mostly Cloudy 24 101.0 -6 62 -12 -13
9:00 N 7 Mostly Cloudy 24 101.1 -8 66 -13 -14
8:00 N 10 Mostly Cloudy 24 101.0 -9 68 -14 -16
7:00 N 8 Mostly Cloudy 24 101.0 -8 66 -13 -14
6:00 N 9 Mostly Cloudy 24 101.0 -8 66 -13 -14
5:00 NNE 11 Cloudy 24 100.9 -8 67 -13 -16
4:00 NNE 7 Cloudy 24 100.9 -9 68 -14 -15

Zoom-in to make a selection

Map of Atlantic - Newfoundland marine weather areas Southwestern Grand Banks - 44138 Banquereau - 44139 Tail of the Bank - 44140 Nickerson Bank - 44251 Northeast Burgeo Bank - 44255 Blanc-Sablon Airport Cap Whittle Chevery Natashquan Airport Heath Point Miscou Island Grand Étang Ingonish Beach North Mountain St.Paul Island J.A. Douglas McCurdy Sydney Airport Charlottetown Airport East Point North Cape Argentia Bonavista Burgeo Cape Race Corner Brook Daniel's Harbour Englee Ferolle Point La Scie Port aux Basques Rocky Harbour Sagona Island St. Anthony Airport St. John's Int'l Airport St. Lawrence Stephenville Airport Twillingate Winterland Wreckhouse Cartwright Airport Mary's Harbour Grates Cove Pool's Island Marticot Island Long Pond Eskasoni (First Nations) Îles de la Madeleine Airport
Legend:
buoy Buoy
land station Land Station

Atlantic - Newfoundland Area

Another Region

What we are doing

Date modified: